Time;durP1;ratioP1;P1;durP2;ratioP2;P2;SDS_P1;SDS_P2;PMS_P1;PMS_P2;Temp;Humidity;BMP_temperature;BMP_pressure;BME280_temperature;BME280_humidity;BME280_pressure;Samples;Min_cycle;Max_cycle;Signal;HPM_P1;HPM_P2
2022/01/06 00:00:21;;;;;;;6.73;2.10;;;;;;;3.07;82.00;97855.63;5056070;28;20585;-71
2022/01/06 00:02:48;;;;;;;5.23;2.20;;;;;;;3.11;81.34;97854.28;5058761;28;20189;-71
2022/01/06 00:05:15;;;;;;;5.20;2.23;;;;;;;3.14;81.64;97859.19;5060428;28;20200;-71
2022/01/06 00:07:41;;;;;;;7.17;2.60;;;;;;;3.11;81.73;97845.59;5060352;28;20528;-71
2022/01/06 00:10:12;;;;;;;7.50;2.27;;;;;;;3.16;81.59;97854.56;5060359;28;20216;-71
2022/01/06 00:12:44;;;;;;;5.83;2.40;;;;;;;3.14;81.93;97856.56;5060343;28;20201;-71
2022/01/06 00:15:25;;;;;;;5.00;2.13;;;;;;;3.12;81.58;97860.38;5060246;28;20280;-71
2022/01/06 00:18:13;;;;;;;5.77;2.20;;;;;;;3.12;83.44;97857.75;5059745;28;20225;-71
2022/01/06 00:23:29;;;;;;;7.63;2.63;;;;;;;3.07;83.52;97857.47;5059867;28;20171;-71
2022/01/06 00:25:57;;;;;;;11.27;2.73;;;;;;;3.08;82.05;97859.88;5060014;28;20229;-71
2022/01/06 00:28:24;;;;;;;7.60;2.33;;;;;;;3.04;83.34;97861.25;5060000;28;20185;-71
2022/01/06 00:30:50;;;;;;;5.50;2.23;;;;;;;3.05;82.78;97865.50;5059955;28;20204;-71
2022/01/06 00:33:18;;;;;;;4.63;2.00;;;;;;;3.03;82.63;97869.31;5059947;28;20197;-71
2022/01/06 00:35:44;;;;;;;7.63;2.43;;;;;;;3.07;82.32;97865.34;5059810;28;20190;-71
2022/01/06 00:38:11;;;;;;;6.20;2.30;;;;;;;3.05;84.13;97868.13;5059733;28;20520;-71
2022/01/06 00:40:38;;;;;;;5.77;2.00;;;;;;;3.11;82.85;97866.63;5059812;28;20196;-71
2022/01/06 00:43:07;;;;;;;6.53;2.50;;;;;;;3.04;83.37;97863.06;5059400;28;20209;-71
2022/01/06 00:45:35;;;;;;;7.43;2.37;;;;;;;3.03;83.42;97861.44;5059646;28;20194;-71
2022/01/06 00:48:02;;;;;;;6.43;2.30;;;;;;;3.02;82.79;97860.59;5059646;28;20268;-71
2022/01/06 00:50:28;;;;;;;10.20;2.60;;;;;;;3.06;85.27;97866.31;5059294;28;20212;-71
2022/01/06 00:52:55;;;;;;;8.73;2.57;;;;;;;2.97;83.99;97864.72;5059270;28;20645;-71
2022/01/06 00:55:22;;;;;;;11.53;2.57;;;;;;;3.06;84.57;97858.44;5059222;28;20205;-71
2022/01/06 00:57:49;;;;;;;8.87;2.70;;;;;;;3.01;84.63;97872.09;5059365;28;20232;-71
2022/01/06 01:00:15;;;;;;;5.30;2.13;;;;;;;3.09;84.62;97863.34;5059472;28;20194;-71
2022/01/06 01:02:42;;;;;;;5.80;2.47;;;;;;;3.03;83.03;97872.72;5059396;28;20217;-71
2022/01/06 01:05:09;;;;;;;10.03;2.63;;;;;;;3.07;83.39;97874.00;5059537;28;20599;-71
2022/01/06 01:07:35;;;;;;;9.60;2.40;;;;;;;3.10;83.28;97867.59;5059002;28;20217;-72
2022/01/06 01:10:01;;;;;;;5.67;2.10;;;;;;;3.06;84.00;97871.56;5059392;28;20197;-73
2022/01/06 01:12:28;;;;;;;5.80;2.33;;;;;;;3.05;82.95;97881.25;5058697;28;20201;-71
2022/01/06 01:14:57;;;;;;;8.43;2.47;;;;;;;3.11;83.56;97885.00;5058629;28;20189;-71
2022/01/06 01:17:26;;;;;;;4.80;2.13;;;;;;;3.11;83.33;97885.00;5058978;28;20229;-71
2022/01/06 01:19:54;;;;;;;6.37;2.50;;;;;;;3.10;82.93;97893.84;5059042;28;20201;-71
2022/01/06 01:22:21;;;;;;;7.87;2.20;;;;;;;3.15;84.22;97891.50;5059037;28;20197;-71
2022/01/06 01:24:47;;;;;;;5.57;2.43;;;;;;;3.16;82.64;97898.41;5058964;28;20205;-71
2022/01/06 01:27:15;;;;;;;5.17;2.37;;;;;;;3.16;83.41;97893.97;5058846;28;20221;-71
2022/01/06 01:29:55;;;;;;;4.03;1.90;;;;;;;3.12;83.53;97902.38;5058869;28;20284;-71
2022/01/06 01:32:28;;;;;;;5.27;2.17;;;;;;;3.09;84.73;97906.19;5058488;28;20194;-71
2022/01/06 01:34:59;;;;;;;6.20;2.20;;;;;;;3.10;85.26;97909.59;5058754;28;20499;-71
2022/01/06 01:37:26;;;;;;;5.03;2.37;;;;;;;3.09;86.50;97907.97;5058564;28;20233;-71
2022/01/06 01:39:52;;;;;;;7.07;2.87;;;;;;;3.00;87.69;97903.78;5058689;28;20206;-71
2022/01/06 01:42:18;;;;;;;4.90;2.60;;;;;;;2.93;88.17;97901.03;5058231;28;20213;-71
2022/01/06 01:44:47;;;;;;;7.60;2.70;;;;;;;2.98;87.60;97911.03;5058580;28;20205;-71
2022/01/06 01:47:15;;;;;;;4.37;2.57;;;;;;;2.91;88.26;97905.66;5058468;28;20221;-71
2022/01/06 01:49:51;;;;;;;8.30;3.17;;;;;;;3.00;87.25;97909.84;5058515;28;20237;-71
2022/01/06 01:52:17;;;;;;;8.63;3.23;;;;;;;3.00;89.61;97916.91;5058461;28;20217;-71
2022/01/06 01:54:44;;;;;;;9.03;3.40;;;;;;;3.01;88.73;97914.13;5058090;28;20719;-71
2022/01/06 01:57:11;;;;;;;7.57;2.50;;;;;;;3.05;87.87;97915.41;5058195;28;20531;-71
2022/01/06 01:59:37;;;;;;;8.63;2.90;;;;;;;2.95;89.43;97917.44;5057994;28;20200;-71
2022/01/06 02:02:04;;;;;;;9.43;2.70;;;;;;;2.96;88.58;97916.44;5058224;28;20205;-71
2022/01/06 02:04:30;;;;;;;6.53;2.83;;;;;;;2.93;87.68;97918.63;5058220;28;20208;-71
2022/01/06 02:06:56;;;;;;;4.13;2.30;;;;;;;2.95;89.50;97921.88;5057799;28;20222;-72
2022/01/06 02:09:23;;;;;;;6.47;2.60;;;;;;;2.93;88.20;97923.88;5058118;28;20200;-71
2022/01/06 02:11:49;;;;;;;8.30;2.73;;;;;;;2.93;89.89;97935.16;5057708;28;20201;-71
2022/01/06 02:14:15;;;;;;;7.97;2.50;;;;;;;2.94;87.85;97925.50;5057700;28;20511;-71
2022/01/06 02:16:42;;;;;;;9.53;2.70;;;;;;;2.89;87.91;97927.81;5057905;28;20221;-71
2022/01/06 02:19:08;;;;;;;9.07;2.47;;;;;;;2.95;88.35;97927.13;5057879;28;20217;-71
2022/01/06 02:21:40;;;;;;;8.40;2.80;;;;;;;2.96;88.39;97924.31;5057883;28;20209;-71
2022/01/06 02:24:07;;;;;;;7.00;2.77;;;;;;;3.00;87.87;97927.41;5057378;28;20200;-71
2022/01/06 02:26:34;;;;;;;7.87;2.60;;;;;;;2.94;88.42;97921.03;5057139;28;20232;-71
2022/01/06 02:29:00;;;;;;;5.97;2.47;;;;;;;2.98;88.64;97929.41;5057749;28;20193;-71
2022/01/06 02:31:27;;;;;;;7.27;2.70;;;;;;;3.00;88.27;97930.03;5057669;28;20284;-71
2022/01/06 02:33:53;;;;;;;3.70;2.47;;;;;;;2.90;88.06;97932.09;5057645;28;20288;-71
2022/01/06 02:36:20;;;;;;;7.30;2.67;;;;;;;2.92;88.84;97930.91;5057652;28;20217;-72
2022/01/06 02:38:46;;;;;;;6.27;2.30;;;;;;;2.95;88.45;97929.75;5057611;28;20279;-72
2022/01/06 02:41:13;;;;;;;5.80;2.50;;;;;;;2.89;88.65;97926.00;5057406;28;20499;-71
2022/01/06 02:43:39;;;;;;;7.53;2.60;;;;;;;2.91;89.24;97934.53;5057473;28;20196;-71
2022/01/06 02:46:05;;;;;;;4.77;2.27;;;;;;;2.90;88.82;97925.03;5057094;28;20695;-71
2022/01/06 02:48:32;;;;;;;6.10;2.37;;;;;;;2.93;87.29;97935.16;5057411;28;20213;-71
2022/01/06 02:50:59;;;;;;;8.37;2.37;;;;;;;2.93;87.54;97934.38;5057030;28;20693;-71
2022/01/06 02:53:25;;;;;;;6.83;2.30;;;;;;;2.92;87.64;97932.72;5057278;28;20201;-71
2022/01/06 02:55:53;;;;;;;5.23;2.50;;;;;;;2.98;87.13;97932.03;5057200;28;20224;-71
2022/01/06 02:58:23;;;;;;;5.80;2.40;;;;;;;2.97;87.96;97941.72;5057163;28;20213;-71
2022/01/06 03:00:51;;;;;;;3.60;2.10;;;;;;;3.01;87.49;97940.38;5057410;28;20208;-71
2022/01/06 03:03:17;;;;;;;6.23;2.63;;;;;;;2.99;88.20;97939.72;5057116;28;20206;-71
2022/01/06 03:05:44;;;;;;;5.70;2.30;;;;;;;3.01;87.65;97957.91;5057013;28;20217;-71
2022/01/06 03:08:11;;;;;;;5.50;2.70;;;;;;;3.11;85.87;97950.66;5057071;28;20189;-71
2022/01/06 03:10:41;;;;;;;5.23;2.60;;;;;;;3.18;85.34;97962.91;5056971;28;20229;-71
2022/01/06 03:13:08;;;;;;;5.93;2.40;;;;;;;3.13;86.05;97967.88;5056997;28;20197;-71
2022/01/06 03:15:34;;;;;;;5.10;2.60;;;;;;;3.10;86.96;97965.59;5056907;28;20200;-71
2022/01/06 03:18:01;;;;;;;3.20;2.10;;;;;;;3.21;85.35;97974.88;5056561;28;20234;-71
2022/01/06 03:20:29;;;;;;;4.77;2.00;;;;;;;3.24;86.56;97979.75;5056893;28;20190;-71
2022/01/06 03:22:56;;;;;;;5.23;2.27;;;;;;;3.27;86.28;97979.41;5056856;28;20200;-71
2022/01/06 03:25:23;;;;;;;6.47;2.50;;;;;;;3.16;90.60;97977.22;5056777;28;20208;-71
2022/01/06 03:27:50;;;;;;;5.70;2.63;;;;;;;3.11;87.55;97979.53;5056366;28;20223;-71
2022/01/06 03:30:19;;;;;;;5.20;2.73;;;;;;;3.04;90.86;97987.31;5056432;28;20216;-71
2022/01/06 03:32:47;;;;;;;8.70;3.00;;;;;;;3.02;88.14;97983.22;5056720;28;20194;-71
2022/01/06 03:35:16;;;;;;;6.73;2.60;;;;;;;3.04;91.06;97989.94;5057232;28;20190;-71
2022/01/06 03:37:42;;;;;;;5.83;2.47;;;;;;;2.98;89.69;97990.59;5056084;28;20221;-71
2022/01/06 03:40:10;;;;;;;6.37;2.90;;;;;;;2.99;90.46;97986.97;5056586;28;20201;-71
2022/01/06 03:42:37;;;;;;;7.00;2.97;;;;;;;3.02;90.00;97984.00;5056268;28;20213;-71
2022/01/06 03:45:08;;;;;;;5.57;2.87;;;;;;;2.99;91.21;97978.31;5056521;28;20201;-71
2022/01/06 03:47:34;;;;;;;6.30;3.13;;;;;;;2.99;90.85;97986.97;5056426;28;20229;-71
2022/01/06 03:50:01;;;;;;;5.37;2.67;;;;;;;3.01;91.15;97984.19;5056458;28;20209;-71
2022/01/06 03:52:27;;;;;;;3.43;2.20;;;;;;;2.96;91.33;97982.09;5056431;28;20201;-71
2022/01/06 03:54:54;;;;;;;8.37;3.03;;;;;;;2.90;93.34;97981.97;5056146;28;20589;-71
2022/01/06 03:57:20;;;;;;;4.70;2.30;;;;;;;2.89;92.00;97990.84;5056043;28;20221;-71
2022/01/06 03:59:46;;;;;;;4.13;2.57;;;;;;;2.83;93.53;97991.50;5055998;28;20518;-71
2022/01/06 04:02:13;;;;;;;3.93;2.27;;;;;;;2.83;92.86;97992.34;5056359;28;20196;-71
2022/01/06 04:04:39;;;;;;;3.90;2.57;;;;;;;2.81;91.03;97988.25;5056109;28;20202;-71
2022/01/06 04:07:06;;;;;;;4.07;2.57;;;;;;;2.85;92.72;98000.84;5056234;28;20228;-71
2022/01/06 04:09:32;;;;;;;8.23;3.00;;;;;;;2.85;91.22;97998.22;5056211;28;20204;-71
2022/01/06 04:11:58;;;;;;;6.03;2.93;;;;;;;2.86;92.50;98012.16;5056196;28;20216;-71
2022/01/06 04:14:25;;;;;;;9.07;2.70;;;;;;;2.91;91.77;98009.84;5055892;28;20621;-71
2022/01/06 04:16:57;;;;;;;5.17;2.97;;;;;;;2.91;91.07;98010.69;5055817;28;20232;-71
2022/01/06 04:19:24;;;;;;;5.53;2.50;;;;;;;3.03;91.39;98016.34;5056150;28;20215;-71
2022/01/06 04:21:50;;;;;;;5.00;2.70;;;;;;;2.99;90.49;98018.50;5056126;28;20209;-71
2022/01/06 04:24:17;;;;;;;4.20;3.07;;;;;;;3.05;90.55;98019.63;5055854;28;20604;-71
2022/01/06 04:26:43;;;;;;;5.20;2.80;;;;;;;3.05;90.98;98007.31;5055964;28;20228;-71
2022/01/06 04:29:09;;;;;;;5.23;2.77;;;;;;;3.07;89.72;98015.81;5056030;28;20220;-71
2022/01/06 04:31:38;;;;;;;5.77;2.80;;;;;;;3.07;90.71;98015.03;5056020;28;20212;-71
2022/01/06 04:34:04;;;;;;;4.93;2.77;;;;;;;3.13;89.68;98023.03;5055962;28;20213;-71
2022/01/06 04:36:30;;;;;;;6.43;2.90;;;;;;;3.02;89.57;98030.47;5055924;28;20228;-71
2022/01/06 04:38:57;;;;;;;6.10;2.93;;;;;;;3.05;90.59;98030.13;5055832;28;20217;-71
2022/01/06 04:41:23;;;;;;;5.47;2.60;;;;;;;3.11;89.07;98032.06;5055461;28;20312;-71
2022/01/06 04:43:49;;;;;;;9.50;3.13;;;;;;;3.05;90.03;98024.88;5055787;28;20197;-71
2022/01/06 04:46:19;;;;;;;4.17;2.73;;;;;;;3.00;91.08;98027.19;5055461;28;20228;-71
2022/01/06 04:48:45;;;;;;;9.17;2.90;;;;;;;3.02;90.54;98023.41;5057220;28;20297;-72
2022/01/06 04:51:12;;;;;;;6.53;2.90;;;;;;;3.01;90.43;98032.28;5059529;28;20263;-71
2022/01/06 04:53:38;;;;;;;7.23;2.87;;;;;;;3.05;89.85;98033.56;5059202;28;20204;-71
2022/01/06 04:56:05;;;;;;;4.93;2.70;;;;;;;3.07;89.59;98036.84;5059511;28;20221;-71
2022/01/06 04:58:32;;;;;;;7.03;2.90;;;;;;;2.98;90.20;98037.88;5059183;28;20636;-71
2022/01/06 05:00:59;;;;;;;6.97;2.63;;;;;;;2.92;91.57;98038.56;5059141;28;20202;-71
2022/01/06 05:03:25;;;;;;;6.43;2.80;;;;;;;2.97;90.83;98038.03;5059402;28;20212;-71
2022/01/06 05:05:52;;;;;;;9.67;2.77;;;;;;;2.96;90.64;98041.66;5059214;28;20225;-71
2022/01/06 05:08:18;;;;;;;5.13;2.30;;;;;;;2.98;90.29;98047.56;5059334;28;20190;-71
2022/01/06 05:10:44;;;;;;;6.50;2.80;;;;;;;2.98;90.48;98048.38;5059246;28;20213;-71
2022/01/06 05:13:11;;;;;;;5.73;2.70;;;;;;;2.96;90.03;98052.16;5059199;28;20208;-71
2022/01/06 05:15:37;;;;;;;8.53;2.80;;;;;;;2.94;89.37;98051.53;5059569;28;20189;-72
2022/01/06 05:18:04;;;;;;;6.67;2.83;;;;;;;2.97;89.53;98065.13;5058973;28;20201;-71
2022/01/06 05:20:31;;;;;;;7.00;3.20;;;;;;;2.96;89.72;98065.28;5058704;28;20205;-71
2022/01/06 05:22:58;;;;;;;6.57;3.00;;;;;;;2.92;90.66;98066.63;5058993;28;20507;-71
2022/01/06 05:25:27;;;;;;;6.07;2.70;;;;;;;2.92;90.19;98070.06;5058916;28;20208;-71
2022/01/06 05:27:54;;;;;;;5.37;2.43;;;;;;;2.86;91.63;98070.75;5058546;28;20221;-71
2022/01/06 05:30:21;;;;;;;5.77;2.90;;;;;;;2.96;90.28;98071.38;5058889;28;20192;-71
2022/01/06 05:32:48;;;;;;;8.90;3.47;;;;;;;2.96;90.74;98075.78;5058845;28;20185;-72
2022/01/06 05:35:14;;;;;;;5.50;2.70;;;;;;;2.96;90.88;98081.03;5058530;28;20207;-72
2022/01/06 05:37:41;;;;;;;7.97;2.53;;;;;;;2.90;91.06;98076.47;5058620;28;20221;-71
2022/01/06 05:40:08;;;;;;;6.03;2.97;;;;;;;2.99;91.01;98080.72;5058223;28;20221;-71
2022/01/06 05:42:34;;;;;;;8.50;3.03;;;;;;;2.96;90.35;98086.28;5058311;28;20212;-71
2022/01/06 05:45:00;;;;;;;5.53;2.80;;;;;;;3.03;90.61;98080.19;5058666;28;20193;-71
2022/01/06 05:47:27;;;;;;;3.73;2.37;;;;;;;3.06;89.54;98086.91;5058193;28;20664;-71
2022/01/06 05:49:53;;;;;;;6.53;2.97;;;;;;;3.02;89.73;98091.69;5058206;28;20624;-71
2022/01/06 05:52:19;;;;;;;9.47;2.40;;;;;;;3.03;90.52;98092.50;5058377;28;20205;-71
2022/01/06 05:54:46;;;;;;;7.47;3.10;;;;;;;3.03;90.99;98095.13;5058318;28;20551;-71
2022/01/06 05:57:13;;;;;;;4.00;2.30;;;;;;;3.04;90.38;98094.16;5057998;28;20232;-71
2022/01/06 05:59:39;;;;;;;9.53;2.93;;;;;;;3.05;90.49;98096.59;5058049;28;20295;-71
2022/01/06 06:02:06;;;;;;;5.27;2.53;;;;;;;3.07;89.12;98093.81;5058280;28;20208;-71
2022/01/06 06:04:32;;;;;;;4.80;2.80;;;;;;;3.12;89.32;98099.38;5058234;28;20201;-71
2022/01/06 06:06:58;;;;;;;7.30;3.17;;;;;;;3.08;89.32;98101.50;5057687;28;20585;-72
2022/01/06 06:09:25;;;;;;;5.97;2.93;;;;;;;3.09;90.00;98099.69;5058080;28;20198;-71
2022/01/06 06:11:51;;;;;;;7.47;3.10;;;;;;;3.07;90.08;98094.63;5058049;28;20185;-71
2022/01/06 06:14:17;;;;;;;4.40;2.50;;;;;;;3.06;90.25;98103.47;5057619;28;20212;-71
2022/01/06 06:16:44;;;;;;;6.43;2.40;;;;;;;3.06;90.47;98103.47;5057516;28;20671;-72
2022/01/06 06:19:10;;;;;;;10.10;2.90;;;;;;;3.08;90.28;98105.94;5057781;28;20225;-73
2022/01/06 06:21:37;;;;;;;5.40;2.90;;;;;;;3.05;89.54;98114.16;5057885;28;20197;-72
2022/01/06 06:24:04;;;;;;;6.67;2.70;;;;;;;3.05;89.92;98115.00;5057795;28;20209;-73
2022/01/06 06:26:30;;;;;;;8.30;2.63;;;;;;;3.04;90.96;98112.53;5057774;28;20225;-72
2022/01/06 06:28:56;;;;;;;6.13;2.40;;;;;;;3.04;89.82;98126.50;5057835;28;20204;-72
2022/01/06 06:31:23;;;;;;;5.83;2.73;;;;;;;3.02;89.36;98122.41;5057648;28;20213;-72
2022/01/06 06:33:49;;;;;;;7.20;3.03;;;;;;;3.05;89.43;98127.28;5057351;28;20600;-72
2022/01/06 06:36:16;;;;;;;6.50;2.60;;;;;;;3.02;89.65;98127.66;5057207;28;20225;-72
2022/01/06 06:38:42;;;;;;;9.10;3.27;;;;;;;3.00;89.07;98133.06;5057138;28;20217;-72
2022/01/06 06:41:08;;;;;;;7.43;3.17;;;;;;;3.02;89.83;98140.78;5057135;28;20873;-72
2022/01/06 06:43:35;;;;;;;7.07;3.13;;;;;;;3.03;91.01;98139.78;5057481;28;20200;-72
2022/01/06 06:46:01;;;;;;;5.87;3.10;;;;;;;3.02;89.22;98146.03;5057091;28;20648;-73
2022/01/06 06:48:27;;;;;;;8.63;3.10;;;;;;;3.05;89.04;98150.94;5057020;28;20212;-73
2022/01/06 06:50:54;;;;;;;7.30;3.13;;;;;;;3.03;88.96;98151.09;5057372;28;20201;-72
2022/01/06 06:53:20;;;;;;;3.97;2.70;;;;;;;3.01;88.86;98147.00;5057306;28;20504;-72
2022/01/06 06:55:46;;;;;;;4.90;2.67;;;;;;;3.01;89.32;98147.81;5057191;28;20193;-73
2022/01/06 06:58:13;;;;;;;6.50;2.90;;;;;;;3.04;88.88;98158.00;5057217;28;20201;-72
2022/01/06 07:00:39;;;;;;;5.33;3.20;;;;;;;3.10;88.61;98162.56;5056802;28;20645;-73
2022/01/06 07:03:05;;;;;;;7.80;2.77;;;;;;;3.08;88.19;98155.84;5057070;28;20190;-72
2022/01/06 07:05:32;;;;;;;5.50;3.17;;;;;;;3.10;88.30;98157.31;5056720;28;20511;-72
2022/01/06 07:07:58;;;;;;;7.70;3.23;;;;;;;3.16;87.28;98161.06;5056711;28;20589;-73
2022/01/06 07:10:25;;;;;;;7.40;3.13;;;;;;;3.18;88.01;98169.59;5056241;28;20573;-73
2022/01/06 07:12:51;;;;;;;7.23;3.17;;;;;;;3.16;87.44;98174.22;5056384;28;20577;-72
2022/01/06 07:15:18;;;;;;;10.67;3.57;;;;;;;3.22;87.57;98168.28;5056853;28;20201;-72
2022/01/06 07:17:44;;;;;;;7.23;3.10;;;;;;;3.11;88.79;98174.72;5057288;28;20225;-72
2022/01/06 07:20:12;;;;;;;8.40;2.80;;;;;;;3.04;89.12;98184.25;5056729;28;20225;-72
2022/01/06 07:22:39;;;;;;;5.27;2.90;;;;;;;3.03;88.61;98179.19;5056754;28;20259;-73
2022/01/06 07:25:06;;;;;;;9.57;3.20;;;;;;;3.00;89.12;98188.22;5056686;28;20201;-72
2022/01/06 07:27:32;;;;;;;8.70;3.23;;;;;;;3.01;88.94;98187.22;5056390;28;20670;-72
2022/01/06 07:29:59;;;;;;;5.40;3.10;;;;;;;3.09;88.54;98183.75;5056690;28;20201;-72
2022/01/06 07:32:25;;;;;;;6.93;3.27;;;;;;;3.16;87.65;98187.34;5056670;28;20189;-72
2022/01/06 07:34:52;;;;;;;7.57;3.00;;;;;;;3.15;87.32;98185.69;5056623;28;20201;-72
2022/01/06 07:37:18;;;;;;;13.10;3.23;;;;;;;3.15;87.28;98181.25;5056478;28;20525;-72
2022/01/06 07:39:45;;;;;;;10.47;2.90;;;;;;;3.12;87.64;98191.28;5056991;28;20216;-73
2022/01/06 07:42:11;;;;;;;5.27;2.77;;;;;;;3.10;88.25;98188.00;5056045;28;20609;-72
2022/01/06 07:44:38;;;;;;;7.60;2.87;;;;;;;3.04;88.10;98193.94;5056230;28;20217;-73
2022/01/06 07:47:04;;;;;;;8.87;2.90;;;;;;;3.09;87.44;98199.50;5056122;28;20674;-72
2022/01/06 07:49:31;;;;;;;6.50;2.90;;;;;;;3.00;88.02;98205.75;5056150;28;20205;-72
2022/01/06 07:51:57;;;;;;;7.57;3.23;;;;;;;2.94;88.22;98209.06;5056121;28;20632;-72
2022/01/06 07:54:24;;;;;;;7.60;2.90;;;;;;;2.95;88.05;98208.06;5056446;28;20521;-73
2022/01/06 07:56:51;;;;;;;8.67;3.27;;;;;;;2.90;88.51;98210.38;5056268;28;20248;-72
2022/01/06 07:59:17;;;;;;;8.93;2.83;;;;;;;2.85;88.83;98218.75;5056306;28;20217;-72
2022/01/06 08:01:43;;;;;;;7.63;2.90;;;;;;;2.87;89.18;98221.22;5056349;28;20194;-72
2022/01/06 08:04:10;;;;;;;8.20;3.17;;;;;;;2.84;88.59;98224.19;5056387;28;20502;-72
2022/01/06 08:06:36;;;;;;;9.97;3.60;;;;;;;2.85;88.96;98229.25;5056186;28;20221;-72
2022/01/06 08:09:02;;;;;;;6.03;3.23;;;;;;;2.85;88.93;98229.25;5055901;28;20216;-72
2022/01/06 08:11:29;;;;;;;8.83;3.50;;;;;;;2.84;89.41;98232.06;5056248;28;20208;-72
2022/01/06 08:13:55;;;;;;;8.20;3.50;;;;;;;2.87;89.04;98236.97;5056221;28;20212;-72
2022/01/06 08:16:21;;;;;;;11.07;4.00;;;;;;;2.91;88.95;98240.91;5056174;28;20221;-72
2022/01/06 08:18:48;;;;;;;7.37;3.53;;;;;;;2.96;88.75;98243.84;5055862;28;20197;-72
2022/01/06 08:21:14;;;;;;;8.07;4.27;;;;;;;2.95;88.80;98244.84;5055920;28;20208;-72
2022/01/06 08:23:40;;;;;;;7.40;3.23;;;;;;;3.00;89.44;98239.91;5059283;28;20209;-72
2022/01/06 08:26:07;;;;;;;9.47;3.97;;;;;;;2.98;89.06;98242.69;5059850;28;20221;-72
2022/01/06 08:28:34;;;;;;;10.90;4.23;;;;;;;2.96;89.69;98241.22;5059720;28;20198;-72
2022/01/06 08:31:00;;;;;;;8.97;4.07;;;;;;;2.99;89.16;98254.81;5059585;28;20495;-73
2022/01/06 08:33:27;;;;;;;7.33;3.97;;;;;;;3.00;89.04;98251.25;5059766;28;20190;-72
2022/01/06 08:35:53;;;;;;;7.90;3.93;;;;;;;3.06;88.19;98247.09;5059791;28;20225;-72
2022/01/06 08:38:20;;;;;;;10.53;4.33;;;;;;;3.07;87.85;98251.41;5059862;28;20221;-73
2022/01/06 08:40:46;;;;;;;8.07;3.83;;;;;;;3.05;88.95;98251.56;5059642;28;20213;-72
2022/01/06 08:43:12;;;;;;;9.90;4.07;;;;;;;2.99;87.92;98251.41;5059222;28;20216;-72
2022/01/06 08:45:40;;;;;;;10.30;4.40;;;;;;;2.96;88.87;98256.97;5059563;28;20193;-72
2022/01/06 08:48:07;;;;;;;10.70;3.70;;;;;;;2.96;88.89;98259.59;5059584;28;20197;-73
2022/01/06 08:50:35;;;;;;;8.23;3.93;;;;;;;2.99;88.20;98267.94;5059478;28;20216;-72
2022/01/06 08:53:01;;;;;;;10.87;3.87;;;;;;;3.00;89.36;98274.03;5059572;28;20196;-72
2022/01/06 08:55:28;;;;;;;8.27;3.90;;;;;;;3.04;89.03;98270.09;5059442;28;20204;-73
2022/01/06 08:57:56;;;;;;;12.00;4.10;;;;;;;3.08;88.21;98260.91;5059349;28;20229;-72
2022/01/06 09:00:22;;;;;;;8.17;4.40;;;;;;;3.17;88.11;98273.03;5059371;28;20216;-72
2022/01/06 09:02:49;;;;;;;7.43;4.07;;;;;;;3.19;88.34;98271.03;5059330;28;20213;-72
2022/01/06 09:05:15;;;;;;;11.20;4.40;;;;;;;3.28;87.57;98275.28;5059299;28;20189;-72
2022/01/06 09:07:42;;;;;;;6.80;3.47;;;;;;;3.36;87.34;98277.91;5059102;28;20264;-72
2022/01/06 09:10:09;;;;;;;7.07;3.30;;;;;;;3.41;86.81;98286.09;5059223;28;20204;-73
2022/01/06 09:12:35;;;;;;;7.53;3.63;;;;;;;3.41;86.42;98279.06;5059206;28;20212;-72
2022/01/06 09:15:02;;;;;;;10.77;4.30;;;;;;;3.43;86.41;98277.06;5059199;28;20193;-72
2022/01/06 09:17:28;;;;;;;4.60;2.77;;;;;;;3.49;85.33;98289.56;5059098;28;20220;-73
2022/01/06 09:19:54;;;;;;;9.83;4.13;;;;;;;3.52;85.41;98289.19;5058965;28;20221;-72
2022/01/06 09:22:21;;;;;;;9.40;3.70;;;;;;;3.65;85.63;98293.91;5058937;28;20208;-72
2022/01/06 09:24:48;;;;;;;6.77;3.47;;;;;;;3.70;85.02;98296.88;5058700;28;20224;-72
2022/01/06 09:27:14;;;;;;;9.17;3.90;;;;;;;3.73;84.11;98289.47;5058665;28;20225;-73
2022/01/06 09:29:40;;;;;;;7.27;3.40;;;;;;;3.77;83.37;98300.44;5058642;28;20193;-73
2022/01/06 09:32:08;;;;;;;8.47;3.30;;;;;;;3.90;84.55;98300.72;5058803;28;20193;-73
2022/01/06 09:34:35;;;;;;;10.30;2.73;;;;;;;3.88;82.53;98311.41;5057930;28;20209;-73
2022/01/06 09:37:01;;;;;;;7.47;3.10;;;;;;;3.95;83.46;98311.53;5059218;28;20217;-73
2022/01/06 09:39:27;;;;;;;7.33;2.93;;;;;;;4.00;82.71;98311.84;5058551;28;20202;-72
2022/01/06 09:41:54;;;;;;;8.27;2.77;;;;;;;3.99;81.37;98315.47;5058208;28;20217;-73
2022/01/06 09:44:21;;;;;;;7.53;3.10;;;;;;;4.00;82.24;98314.47;5058163;28;20202;-73
2022/01/06 09:46:47;;;;;;;6.57;3.10;;;;;;;4.01;81.73;98331.91;5058474;28;20221;-73
2022/01/06 09:49:14;;;;;;;8.83;3.10;;;;;;;4.06;82.55;98332.19;5058425;28;20223;-72
2022/01/06 09:51:40;;;;;;;5.90;2.50;;;;;;;4.14;83.14;98327.75;5058414;28;20190;-72
2022/01/06 09:54:07;;;;;;;8.97;3.30;;;;;;;4.24;83.02;98328.34;5058026;28;20201;-73
2022/01/06 09:56:35;;;;;;;7.30;2.70;;;;;;;3.98;82.66;98332.25;5057951;28;20224;-73
2022/01/06 09:59:02;;;;;;;6.23;2.73;;;;;;;4.07;82.33;98341.75;5058046;28;20268;-72
2022/01/06 10:01:28;;;;;;;7.47;2.77;;;;;;;3.94;82.16;98336.22;5058543;28;20216;-72
2022/01/06 10:03:55;;;;;;;5.50;2.53;;;;;;;3.95;82.31;98340.47;5057994;28;20194;-72
2022/01/06 10:06:24;;;;;;;4.20;2.60;;;;;;;3.90;81.85;98341.00;5058116;28;20221;-72
2022/01/06 10:09:04;;;;;;;7.70;2.80;;;;;;;3.75;81.75;98339.25;5058060;28;20193;-72
2022/01/06 10:11:32;;;;;;;10.17;2.97;;;;;;;3.57;81.88;98349.16;5057685;28;20190;-72
2022/01/06 10:13:59;;;;;;;7.73;2.77;;;;;;;3.51;82.39;98341.91;5057583;28;20624;-73
2022/01/06 10:16:29;;;;;;;6.20;2.83;;;;;;;3.69;82.67;98337.28;5057792;28;20311;-73
2022/01/06 10:19:00;;;;;;;6.53;2.43;;;;;;;3.67;82.52;98341.91;5057571;28;20284;-73
2022/01/06 10:21:30;;;;;;;7.77;3.20;;;;;;;3.75;82.22;98337.41;5057358;28;20220;-73
2022/01/06 10:24:09;;;;;;;5.10;2.70;;;;;;;3.99;82.19;98345.25;5057828;28;20194;-72
2022/01/06 10:26:36;;;;;;;7.37;3.13;;;;;;;4.05;81.86;98348.97;5057415;28;20239;-72
2022/01/06 10:29:07;;;;;;;6.27;2.83;;;;;;;4.10;80.44;98338.75;5057441;28;20209;-72
2022/01/06 10:31:33;;;;;;;6.20;2.63;;;;;;;4.24;80.31;98338.88;5057648;28;20186;-72
2022/01/06 10:34:06;;;;;;;6.47;2.80;;;;;;;4.11;81.44;98337.78;5057514;28;20251;-72
2022/01/06 10:36:35;;;;;;;9.03;2.43;;;;;;;4.11;80.45;98343.06;5057117;28;20643;-72
2022/01/06 10:39:02;;;;;;;5.93;2.57;;;;;;;4.15;79.30;98347.78;5057312;28;20189;-73
2022/01/06 10:41:29;;;;;;;6.87;2.23;;;;;;;4.27;77.82;98348.22;5056721;28;20221;-73
2022/01/06 10:43:58;;;;;;;9.17;2.70;;;;;;;4.66;78.08;98344.53;5057267;28;20208;-72
2022/01/06 10:46:44;;;;;;;5.70;2.37;;;;;;;4.78;77.79;98342.31;5056110;28;20268;-72
2022/01/06 10:49:16;;;;;;;5.20;2.30;;;;;;;4.93;76.71;98348.47;5057344;28;20189;-72
2022/01/06 10:51:48;;;;;;;8.77;2.80;;;;;;;4.93;76.33;98348.47;5057234;28;20182;-73
2022/01/06 10:54:24;;;;;;;10.80;2.83;;;;;;;5.00;75.56;98349.38;5057123;28;20500;-73
2022/01/06 10:56:56;;;;;;;8.07;2.70;;;;;;;5.34;75.61;98347.94;5056799;28;20523;-72
2022/01/06 10:59:32;;;;;;;8.17;2.37;;;;;;;5.31;73.40;98352.75;5056614;28;20202;-72
2022/01/06 11:01:59;;;;;;;9.10;2.33;;;;;;;4.94;74.12;98355.38;5056863;28;20215;-72
2022/01/06 11:04:27;;;;;;;6.47;2.10;;;;;;;4.94;74.00;98352.75;5056614;28;20687;-72
2022/01/06 11:06:53;;;;;;;11.00;2.50;;;;;;;4.72;76.30;98357.03;5056793;28;20221;-72
2022/01/06 11:09:20;;;;;;;7.23;2.27;;;;;;;5.05;75.89;98352.31;5056953;28;20193;-72
2022/01/06 11:14:31;;;;;;;8.43;2.30;;;;;;;5.02;75.94;98350.84;5056830;28;20212;-72
2022/01/06 11:16:58;;;;;;;6.17;2.13;;;;;;;4.78;74.95;98364.22;5056741;28;20355;-72
2022/01/06 11:19:27;;;;;;;7.90;2.20;;;;;;;4.59;76.50;98355.94;5056678;28;20201;-72
2022/01/06 11:21:59;;;;;;;9.37;2.40;;;;;;;4.70;76.10;98363.47;5055894;28;20624;-72
2022/01/06 11:24:28;;;;;;;4.37;1.97;;;;;;;4.40;75.04;98359.84;5055997;28;20297;-72
2022/01/06 11:27:10;;;;;;;8.60;2.30;;;;;;;4.25;75.75;98361.56;5056024;28;20233;-72
2022/01/06 11:29:40;;;;;;;7.03;1.90;;;;;;;4.27;76.30;98361.38;5056157;28;20235;-72
2022/01/06 11:32:22;;;;;;;8.90;2.83;;;;;;;4.45;76.55;98354.88;5056458;28;20193;-72
2022/01/06 11:35:02;;;;;;;7.90;1.93;;;;;;;4.39;76.27;98360.03;5056404;28;20185;-72
2022/01/06 11:37:44;;;;;;;8.90;2.17;;;;;;;4.39;75.95;98363.44;5056354;28;20228;-73
2022/01/06 11:40:12;;;;;;;8.67;2.23;;;;;;;4.47;75.98;98358.16;5056245;28;20208;-72
2022/01/06 11:42:39;;;;;;;7.30;2.23;;;;;;;4.49;74.52;98360.63;5055796;28;20212;-72
2022/01/06 11:45:06;;;;;;;5.37;1.73;;;;;;;4.40;74.17;98357.22;5056266;28;20196;-72
2022/01/06 11:47:38;;;;;;;11.07;2.43;;;;;;;4.10;75.40;98363.28;5056221;28;20225;-73